createdAt,value
2019-04-27T00:02:05.758Z,90.95
2019-04-27T00:04:38.802Z,84.72
2019-04-27T00:07:13.090Z,88.50
2019-04-27T00:09:50.337Z,86.08
2019-04-27T00:12:22.738Z,82.37
2019-04-27T00:14:55.164Z,88.75
2019-04-27T00:17:45.792Z,87.82
2019-04-27T00:20:13.100Z,91.02
2019-04-27T00:22:50.338Z,94.62
2019-04-27T00:25:23.077Z,86.90
2019-04-27T00:27:54.337Z,76.37
2019-04-27T00:30:25.510Z,50.35
2019-04-27T00:32:56.658Z,49.90
2019-04-27T00:35:30.141Z,52.27
2019-04-27T00:38:13.128Z,51.13
2019-04-27T00:40:48.699Z,39.53
2019-04-27T00:43:20.198Z,55.50
2019-04-27T00:45:53.649Z,49.98
2019-04-27T00:48:25.558Z,42.80
2019-04-27T00:50:56.719Z,41.77
2019-04-27T00:53:29.061Z,55.70
2019-04-27T00:56:08.041Z,60.65
2019-04-27T00:58:45.458Z,63.87
2019-04-27T01:01:23.277Z,63.05
2019-04-27T01:03:55.880Z,62.10
2019-04-27T01:06:27.566Z,76.62
2019-04-27T01:08:58.918Z,44.77
2019-04-27T01:11:30.233Z,41.58
2019-04-27T01:14:01.300Z,46.02
2019-04-27T01:16:32.543Z,59.45
2019-04-27T01:19:04.057Z,43.68
2019-04-27T01:21:35.813Z,47.23
2019-04-27T01:24:08.897Z,54.40
2019-04-27T01:26:41.582Z,53.78
2019-04-27T01:29:14.533Z,446.57
2019-04-27T01:31:45.700Z,88.20
2019-04-27T01:34:17.071Z,86.53
2019-04-27T01:36:49.300Z,84.30
2019-04-27T01:39:20.523Z,100.62
2019-04-27T01:41:51.707Z,95.03
2019-04-27T01:44:23.024Z,75.97
2019-04-27T01:46:55.202Z,62.70
2019-04-27T01:49:29.532Z,65.72
2019-04-27T01:52:00.897Z,68.28
2019-04-27T01:54:32.250Z,76.95
2019-04-27T01:57:04.267Z,88.05
2019-04-27T01:59:36.533Z,80.40
2019-04-27T02:02:12.170Z,74.32
2019-04-27T02:04:44.937Z,73.02
2019-04-27T02:07:16.573Z,75.97
2019-04-27T02:09:48.664Z,89.85
2019-04-27T02:12:20.191Z,82.25
2019-04-27T02:14:51.839Z,96.92
2019-04-27T02:17:23.295Z,96.87
2019-04-27T02:19:54.539Z,91.08
2019-04-27T02:22:29.730Z,92.60
2019-04-27T02:25:00.981Z,112.10
2019-04-27T02:27:34.630Z,109.48
2019-04-27T02:30:11.939Z,100.78
2019-04-27T02:33:01.591Z,108.75
2019-04-27T02:35:33.177Z,104.25
2019-04-27T02:38:04.902Z,111.77
2019-04-27T02:40:51.420Z,100.55
2019-04-27T02:46:03.688Z,108.87
2019-04-27T02:48:51.907Z,115.30
2019-04-27T02:51:10.084Z,118.50
2019-04-27T02:53:54.519Z,100.58
2019-04-27T02:56:25.724Z,102.90
2019-04-27T02:58:59.146Z,98.37
2019-04-27T03:01:31.255Z,103.67
2019-04-27T03:04:02.336Z,96.75
2019-04-27T03:06:33.471Z,101.07
2019-04-27T03:09:07.099Z,102.62
2019-04-27T03:11:39.560Z,92.90
2019-04-27T03:14:28.413Z,113.92
2019-04-27T03:17:03.892Z,105.47
2019-04-27T03:19:36.719Z,97.45
2019-04-27T03:22:12.999Z,105.07
2019-04-27T03:25:01.951Z,101.92
2019-04-27T03:27:35.134Z,90.65
2019-04-27T03:30:12.088Z,93.25
2019-04-27T03:32:43.157Z,102.25
2019-04-27T03:35:14.886Z,100.72
2019-04-27T03:37:46.469Z,91.47
2019-04-27T03:40:20.370Z,86.40
2019-04-27T03:42:52.644Z,83.50
2019-04-27T03:45:24.202Z,77.05
2019-04-27T03:47:55.744Z,82.78
2019-04-27T03:50:30.341Z,90.25
2019-04-27T03:53:20.575Z,68.12
2019-04-27T03:55:59.820Z,84.65
2019-04-27T03:58:31.899Z,82.80
2019-04-27T04:01:03.179Z,82.97
2019-04-27T04:03:34.436Z,78.10
2019-04-27T04:06:06.151Z,81.92
2019-04-27T04:08:39.700Z,93.20
2019-04-27T04:11:12.658Z,82.45
2019-04-27T04:13:45.886Z,82.78
2019-04-27T04:16:29.439Z,88.62
2019-04-27T04:19:01.765Z,84.72
2019-04-27T04:21:33.882Z,83.33
2019-04-27T04:24:04.982Z,83.70
2019-04-27T04:26:36.279Z,89.17
2019-04-27T04:29:09.892Z,85.12
2019-04-27T04:31:40.893Z,86.42
2019-04-27T04:34:12.425Z,75.97
2019-04-27T04:36:43.691Z,83.15
2019-04-27T04:39:14.801Z,96.60
2019-04-27T04:41:59.712Z,101.95
2019-04-27T04:44:32.092Z,100.65
2019-04-27T04:47:10.594Z,89.45
2019-04-27T04:49:41.837Z,76.20
2019-04-27T04:52:13.015Z,84.70
2019-04-27T04:54:44.152Z,82.62
2019-04-27T04:57:15.347Z,89.80
2019-04-27T04:59:46.561Z,92.05
2019-04-27T05:02:19.149Z,106.92
2019-04-27T05:04:50.487Z,91.42
2019-04-27T05:07:21.663Z,91.25
2019-04-27T05:09:53.253Z,91.63
2019-04-27T05:12:24.896Z,88.92
2019-04-27T05:14:56.774Z,96.90
2019-04-27T05:17:29.657Z,87.62
2019-04-27T05:20:02.598Z,90.32
2019-04-27T05:22:33.808Z,76.90
2019-04-27T05:25:05.479Z,75.22
2019-04-27T05:27:36.696Z,45.00
2019-04-27T05:30:09.324Z,33.92
2019-04-27T05:32:40.527Z,44.67
2019-04-27T05:35:11.696Z,36.75
2019-04-27T05:37:44.416Z,34.10
2019-04-27T05:40:15.627Z,15.63
2019-04-27T05:42:48.830Z,18.73
2019-04-27T05:45:48.816Z,18.40
2019-04-27T05:48:27.635Z,12.63
2019-04-27T05:50:58.755Z,9.78
2019-04-27T05:53:29.087Z,11.48
2019-04-27T05:56:00.313Z,11.15
2019-04-27T05:58:31.522Z,9.28
2019-04-27T06:01:02.713Z,109.97
2019-04-27T06:03:33.939Z,25.05
2019-04-27T06:06:05.082Z,44.08
2019-04-27T06:08:36.329Z,58.08
2019-04-27T06:11:09.250Z,36.03
2019-04-27T06:13:40.527Z,20.90
2019-04-27T06:16:11.716Z,28.90
2019-04-27T06:18:42.790Z,27.62
2019-04-27T06:21:13.839Z,17.80
2019-04-27T06:23:46.361Z,20.77
2019-04-27T06:26:20.036Z,16.42
2019-04-27T06:28:50.605Z,15.03
2019-04-27T06:31:21.778Z,10.85
2019-04-27T06:33:52.938Z,5.92
2019-04-27T06:36:23.946Z,13.85
2019-04-27T06:38:55.137Z,10.15
2019-04-27T06:41:26.529Z,11.83
2019-04-27T06:43:59.175Z,13.18
2019-04-27T06:46:30.419Z,9.15
2019-04-27T06:49:01.379Z,7.45
2019-04-27T06:51:33.373Z,14.78
2019-04-27T06:54:04.636Z,7.97
2019-04-27T06:56:35.720Z,18.82
2019-04-27T06:59:08.594Z,15.95
2019-04-27T07:01:39.799Z,12.63
2019-04-27T07:04:11.135Z,14.55
2019-04-27T07:06:53.192Z,10.85
2019-04-27T07:09:15.148Z,11.45
2019-04-27T07:11:46.199Z,10.80
2019-04-27T07:14:17.321Z,10.93
2019-04-27T07:16:50.709Z,11.85
2019-04-27T07:19:22.102Z,12.10
2019-04-27T07:21:53.253Z,17.50
2019-04-27T07:24:24.450Z,13.13
2019-04-27T07:26:55.553Z,11.03
2019-04-27T07:29:26.786Z,17.67
2019-04-27T07:31:59.673Z,11.33
2019-04-27T07:34:31.149Z,9.13
2019-04-27T07:37:02.085Z,10.03
2019-04-27T07:39:33.285Z,11.90
2019-04-27T07:42:04.450Z,7.45
2019-04-27T07:44:50.027Z,17.45
2019-04-27T07:49:55.967Z,19.95
2019-04-27T07:52:28.680Z,7.28
2019-04-27T07:55:00.001Z,6.92
2019-04-27T07:57:30.987Z,9.70
2019-04-27T08:00:01.911Z,7.72
2019-04-27T08:02:34.836Z,70.95
2019-04-27T08:05:06.319Z,12.68
2019-04-27T08:07:39.123Z,18.60
2019-04-27T08:10:10.519Z,34.75
2019-04-27T08:12:43.774Z,27.65
2019-04-27T08:15:18.855Z,18.75
2019-04-27T08:20:21.236Z,11.20
2019-04-27T08:22:52.631Z,19.30
2019-04-27T08:25:23.814Z,16.57
2019-04-27T08:28:10.427Z,12.43
2019-04-27T08:30:45.928Z,9.95
2019-04-27T08:35:49.067Z,25.62
2019-04-27T08:38:20.662Z,36.13
2019-04-27T08:40:52.232Z,41.55
2019-04-27T08:43:24.759Z,25.48
2019-04-27T08:45:56.114Z,11.75
2019-04-27T08:48:34.647Z,12.07
2019-04-27T08:51:00.247Z,19.62
2019-04-27T08:53:31.797Z,16.90
2019-04-27T08:56:04.481Z,13.18
2019-04-27T08:58:35.655Z,20.77
2019-04-27T09:01:09.996Z,19.62
2019-04-27T09:03:39.711Z,14.47
2019-04-27T09:06:12.686Z,38.08
2019-04-27T09:08:49.512Z,39.18
2019-04-27T09:11:28.955Z,16.17
2019-04-27T09:14:01.681Z,29.42
2019-04-27T09:16:41.866Z,25.12
2019-04-27T09:19:18.849Z,21.77
2019-04-27T09:22:12.359Z,12.13
2019-04-27T09:24:39.635Z,15.03
2019-04-27T09:27:11.201Z,27.32
2019-04-27T09:29:42.764Z,14.73
2019-04-27T09:32:13.862Z,14.15
2019-04-27T09:34:46.690Z,18.25
2019-04-27T09:37:18.054Z,12.78
2019-04-27T09:39:49.316Z,13.50
2019-04-27T09:42:20.611Z,13.60
2019-04-27T09:44:52.766Z,10.45
2019-04-27T09:47:24.076Z,19.12
2019-04-27T09:49:56.537Z,18.62
2019-04-27T09:52:28.701Z,16.25
2019-04-27T09:54:59.962Z,18.62
2019-04-27T09:57:31.619Z,17.32
2019-04-27T10:00:02.821Z,19.00
2019-04-27T10:02:36.518Z,13.00
2019-04-27T10:05:07.697Z,12.60
2019-04-27T10:07:39.015Z,14.28
2019-04-27T10:10:11.378Z,11.63
2019-04-27T10:12:42.741Z,17.48
2019-04-27T10:15:13.876Z,12.98
2019-04-27T10:17:45.594Z,13.70
2019-04-27T10:20:16.917Z,12.98
2019-04-27T10:22:48.233Z,12.25
2019-04-27T10:25:24.113Z,9.30
2019-04-27T10:27:58.872Z,11.60
2019-04-27T10:30:31.050Z,27.02
2019-04-27T10:33:02.582Z,23.47
2019-04-27T10:35:33.878Z,19.87
2019-04-27T10:38:05.001Z,14.40
2019-04-27T10:40:36.089Z,16.32
2019-04-27T10:43:07.271Z,12.43
2019-04-27T10:45:38.695Z,14.33
2019-04-27T10:48:09.903Z,13.80
2019-04-27T10:50:41.164Z,17.73
2019-04-27T10:53:12.273Z,11.05
2019-04-27T10:55:43.567Z,16.35
2019-04-27T10:58:14.776Z,12.03
2019-04-27T11:00:51.255Z,11.50
2019-04-27T11:03:40.250Z,10.60
2019-04-27T11:06:26.101Z,10.23
2019-04-27T11:08:57.400Z,16.57
2019-04-27T11:11:28.794Z,21.97
2019-04-27T11:14:01.071Z,18.67
2019-04-27T11:16:32.627Z,21.68
2019-04-27T11:19:03.980Z,44.30
2019-04-27T11:21:35.360Z,24.35
2019-04-27T11:24:06.618Z,35.65
2019-04-27T11:26:37.775Z,26.00
2019-04-27T11:29:08.805Z,17.62
2019-04-27T11:31:42.858Z,18.45
2019-04-27T11:34:15.641Z,20.08
2019-04-27T11:36:48.677Z,14.45
2019-04-27T11:39:21.251Z,15.55
2019-04-27T11:41:52.485Z,21.95
2019-04-27T11:44:23.699Z,65.12
2019-04-27T11:46:55.945Z,19.37
2019-04-27T11:49:28.263Z,28.12
2019-04-27T11:51:59.561Z,26.25
2019-04-27T11:54:31.074Z,19.30
2019-04-27T11:57:03.281Z,21.33
2019-04-27T11:59:34.661Z,17.77
2019-04-27T12:02:05.963Z,19.80
2019-04-27T12:04:37.162Z,25.52
2019-04-27T12:07:08.346Z,18.42
2019-04-27T12:09:39.523Z,13.15
2019-04-27T12:12:19.429Z,19.27
2019-04-27T12:14:43.413Z,21.80
2019-04-27T12:17:16.415Z,17.73
2019-04-27T12:19:53.492Z,16.40
2019-04-27T12:22:24.578Z,7.87
2019-04-27T12:24:56.208Z,13.93
2019-04-27T12:27:41.167Z,13.72
2019-04-27T12:30:13.948Z,12.35
2019-04-27T12:32:45.777Z,13.53
2019-04-27T12:35:17.139Z,11.43
2019-04-27T12:37:48.361Z,12.50
2019-04-27T12:40:20.295Z,12.13
2019-04-27T12:42:51.436Z,10.35
2019-04-27T12:45:22.619Z,13.85
2019-04-27T12:47:53.824Z,12.33
2019-04-27T12:50:26.084Z,11.48
2019-04-27T12:53:01.775Z,9.88
2019-04-27T12:55:50.491Z,10.90
2019-04-27T12:58:26.566Z,14.07
2019-04-27T13:01:02.517Z,12.75
2019-04-27T13:03:33.713Z,16.17
2019-04-27T13:06:04.886Z,11.03
2019-04-27T13:08:36.005Z,15.15
2019-04-27T13:11:07.206Z,16.32
2019-04-27T13:13:38.572Z,10.82
2019-04-27T13:16:09.757Z,7.60
2019-04-27T13:18:40.829Z,14.58
2019-04-27T13:21:12.093Z,12.63
2019-04-27T13:23:43.558Z,13.08
2019-04-27T13:26:16.426Z,12.43
2019-04-27T13:28:48.824Z,12.23
2019-04-27T13:31:20.084Z,11.00
2019-04-27T13:33:51.298Z,11.38
2019-04-27T13:36:22.428Z,11.95
2019-04-27T13:38:55.839Z,8.65
2019-04-27T13:41:32.667Z,9.50
2019-04-27T13:43:59.451Z,8.10
2019-04-27T13:46:32.178Z,8.75
2019-04-27T13:49:07.685Z,9.95
2019-04-27T13:51:43.235Z,8.68
2019-04-27T13:56:47.687Z,17.15
2019-04-27T13:59:18.907Z,14.07
2019-04-27T14:01:50.018Z,11.75
2019-04-27T14:04:21.302Z,12.50
2019-04-27T14:06:52.345Z,14.03
2019-04-27T14:09:23.498Z,14.20
2019-04-27T14:11:56.330Z,12.68
2019-04-27T14:14:28.869Z,12.13
2019-04-27T14:17:00.119Z,11.78
2019-04-27T14:19:32.524Z,10.48
2019-04-27T14:22:03.798Z,18.80
2019-04-27T14:24:39.586Z,14.98
2019-04-27T14:27:10.768Z,7.05
2019-04-27T14:29:41.934Z,11.80
2019-04-27T14:32:13.067Z,10.50
2019-04-27T14:34:44.400Z,8.40
2019-04-27T14:37:15.531Z,7.55
2019-04-27T14:39:46.800Z,12.05
2019-04-27T14:42:19.124Z,10.63
2019-04-27T14:44:51.660Z,9.45
2019-04-27T14:47:22.742Z,11.05
2019-04-27T14:49:53.963Z,14.50
2019-04-27T14:52:25.294Z,10.70
2019-04-27T14:54:58.268Z,15.72
2019-04-27T14:57:29.491Z,13.60
2019-04-27T15:00:00.648Z,14.87
2019-04-27T15:02:31.819Z,9.08
2019-04-27T15:05:03.060Z,9.13
2019-04-27T15:07:34.315Z,12.35
2019-04-27T15:10:06.480Z,11.93
2019-04-27T15:12:37.589Z,17.95
2019-04-27T15:15:08.721Z,10.72
2019-04-27T15:17:40.274Z,12.80
2019-04-27T15:20:31.085Z,13.53
2019-04-27T15:23:03.446Z,12.78
2019-04-27T15:25:42.354Z,11.65
2019-04-27T15:28:12.215Z,11.03
2019-04-27T15:30:46.633Z,10.30
2019-04-27T15:33:35.809Z,28.15
2019-04-27T15:36:25.064Z,10.70
2019-04-27T15:39:03.711Z,14.43
2019-04-27T15:41:45.544Z,14.68
2019-04-27T15:44:16.710Z,9.68
2019-04-27T15:46:47.972Z,10.82
2019-04-27T15:49:19.202Z,24.70
2019-04-27T15:51:54.317Z,14.07
2019-04-27T15:54:29.041Z,10.20
2019-04-27T15:56:58.035Z,12.23
2019-04-27T15:59:37.020Z,14.38
2019-04-27T16:02:05.509Z,10.68
2019-04-27T16:04:39.541Z,23.00
2019-04-27T16:07:09.393Z,16.02
2019-04-27T16:09:40.585Z,15.10
2019-04-27T16:12:12.922Z,15.23
2019-04-27T16:14:44.384Z,13.05
2019-04-27T16:17:15.501Z,13.78
2019-04-27T16:19:50.294Z,14.98
2019-04-27T16:22:22.638Z,14.28
2019-04-27T16:24:53.525Z,14.25
2019-04-27T16:27:25.909Z,14.73
2019-04-27T16:30:04.791Z,17.62
2019-04-27T16:32:32.739Z,16.60
2019-04-27T16:35:04.376Z,19.07
2019-04-27T16:37:56.501Z,20.65
2019-04-27T16:40:30.150Z,39.18
2019-04-27T16:43:01.411Z,22.10
2019-04-27T16:45:32.629Z,20.10
2019-04-27T16:48:03.889Z,26.00
2019-04-27T16:50:35.240Z,19.90
2019-04-27T16:53:09.033Z,28.95
2019-04-27T16:55:39.288Z,19.07
2019-04-27T16:58:15.688Z,17.70
2019-04-27T17:00:45.236Z,19.87
2019-04-27T17:03:18.051Z,21.02
2019-04-27T17:05:49.292Z,30.62
2019-04-27T17:08:22.339Z,28.02
2019-04-27T17:10:59.264Z,31.00
2019-04-27T17:13:28.054Z,28.02
2019-04-27T17:16:18.870Z,22.90
2019-04-27T17:18:57.705Z,21.40
2019-04-27T17:21:28.809Z,16.10
2019-04-27T17:24:02.927Z,32.03
2019-04-27T17:26:35.570Z,29.20
2019-04-27T17:29:16.714Z,22.87
2019-04-27T17:31:50.531Z,23.15
2019-04-27T17:34:25.197Z,25.82
2019-04-27T17:36:56.374Z,27.95
2019-04-27T17:39:29.570Z,23.00
2019-04-27T17:42:00.363Z,27.17
2019-04-27T17:44:31.689Z,30.82
2019-04-27T17:47:02.875Z,33.10
2019-04-27T17:49:34.102Z,30.48
2019-04-27T17:52:05.347Z,26.37
2019-04-27T17:54:42.487Z,27.93
2019-04-27T17:57:13.283Z,37.83
2019-04-27T17:59:42.661Z,24.57
2019-04-27T18:02:13.928Z,26.40
2019-04-27T18:04:45.159Z,54.25
2019-04-27T18:07:16.294Z,33.38
2019-04-27T18:09:48.319Z,49.60
2019-04-27T18:12:20.062Z,33.23
2019-04-27T18:14:51.225Z,42.03
2019-04-27T18:17:23.214Z,38.15
2019-04-27T18:19:57.606Z,51.30
2019-04-27T18:22:32.241Z,37.20
2019-04-27T18:25:06.692Z,31.60
2019-04-27T18:27:49.629Z,34.27
2019-04-27T18:30:22.958Z,35.25
2019-04-27T18:32:59.369Z,30.95
2019-04-27T18:35:29.680Z,37.53
2019-04-27T18:38:01.982Z,27.22
2019-04-27T18:40:34.412Z,29.80
2019-04-27T18:43:06.482Z,23.52
2019-04-27T18:45:44.782Z,26.62
2019-04-27T18:48:14.869Z,27.10
2019-04-27T18:50:53.274Z,26.45
2019-04-27T18:53:26.041Z,27.27
2019-04-27T18:56:04.396Z,24.57
2019-04-27T18:58:30.091Z,35.20
2019-04-27T19:01:01.250Z,28.47
2019-04-27T19:03:33.125Z,27.20
2019-04-27T19:06:04.927Z,36.23
2019-04-27T19:08:36.218Z,31.07
2019-04-27T19:11:09.079Z,22.02
2019-04-27T19:13:41.516Z,21.87
2019-04-27T19:16:12.730Z,24.20
2019-04-27T19:18:44.345Z,28.73
2019-04-27T19:21:15.496Z,27.40
2019-04-27T19:23:46.791Z,27.42
2019-04-27T19:26:20.578Z,21.42
2019-04-27T19:29:05.669Z,22.00
2019-04-27T19:31:38.659Z,19.37
2019-04-27T19:34:09.870Z,15.85
2019-04-27T19:36:41.051Z,25.48
2019-04-27T19:39:14.169Z,19.82
2019-04-27T19:41:57.005Z,17.02
2019-04-27T19:44:19.273Z,24.07
2019-04-27T19:46:50.787Z,19.55
2019-04-27T19:49:21.875Z,20.65
2019-04-27T19:51:53.039Z,16.40
2019-04-27T19:54:24.270Z,19.45
2019-04-27T19:56:55.501Z,20.60
2019-04-27T19:59:28.302Z,19.30
2019-04-27T20:02:01.010Z,21.48
2019-04-27T20:04:33.896Z,19.48
2019-04-27T20:07:05.751Z,20.57
2019-04-27T20:09:50.156Z,18.32
2019-04-27T20:12:21.494Z,25.97
2019-04-27T20:14:55.641Z,24.27
2019-04-27T20:17:31.259Z,18.05
2019-04-27T20:20:02.834Z,12.28
2019-04-27T20:22:35.142Z,27.02
2019-04-27T20:25:06.314Z,19.00
2019-04-27T20:27:46.235Z,14.80
2019-04-27T20:30:12.212Z,17.73
2019-04-27T20:32:44.935Z,17.52
2019-04-27T20:35:17.058Z,22.67
2019-04-27T20:37:48.282Z,28.87
2019-04-27T20:40:21.610Z,19.90
2019-04-27T20:42:52.459Z,22.20
2019-04-27T20:45:23.721Z,13.65
2019-04-27T20:47:55.005Z,15.32
2019-04-27T20:50:26.333Z,19.52
2019-04-27T20:52:57.707Z,19.15
2019-04-27T20:55:29.233Z,17.65
2019-04-27T20:58:02.547Z,15.38
2019-04-27T21:00:34.044Z,15.35
2019-04-27T21:03:06.979Z,15.08
2019-04-27T21:05:42.508Z,17.65
2019-04-27T21:08:15.356Z,16.87
2019-04-27T21:10:46.553Z,14.00
2019-04-27T21:13:17.813Z,18.80
2019-04-27T21:15:50.849Z,18.17
2019-04-27T21:18:21.873Z,19.10
2019-04-27T21:20:53.091Z,16.48
2019-04-27T21:23:24.293Z,20.00
2019-04-27T21:25:55.564Z,19.98
2019-04-27T21:28:26.646Z,17.25
2019-04-27T21:30:58.079Z,18.90
2019-04-27T21:33:29.343Z,21.37
2019-04-27T21:36:01.418Z,19.92
2019-04-27T21:38:32.770Z,14.28
2019-04-27T21:41:03.950Z,19.80
2019-04-27T21:43:36.181Z,16.07
2019-04-27T21:46:07.286Z,12.82
2019-04-27T21:48:38.378Z,19.60
2019-04-27T21:51:09.576Z,16.85
2019-04-27T21:53:57.270Z,12.70
2019-04-27T21:56:28.497Z,13.05
2019-04-27T21:59:01.011Z,10.18
2019-04-27T22:01:33.704Z,13.20
2019-04-27T22:04:06.525Z,14.47
2019-04-27T22:06:37.669Z,10.55
2019-04-27T22:09:11.060Z,12.13
2019-04-27T22:11:43.548Z,16.40
2019-04-27T22:14:14.781Z,14.15
2019-04-27T22:16:45.976Z,13.55
2019-04-27T22:19:17.155Z,15.08
2019-04-27T22:21:48.371Z,12.40
2019-04-27T22:24:29.848Z,14.58
2019-04-27T22:27:00.964Z,17.65
2019-04-27T22:29:32.279Z,13.22
2019-04-27T22:32:03.568Z,16.12
2019-04-27T22:34:34.857Z,13.38
2019-04-27T22:37:05.946Z,13.65
2019-04-27T22:39:54.772Z,15.50
2019-04-27T22:42:31.318Z,14.03
2019-04-27T22:45:05.274Z,13.62
2019-04-27T22:47:36.509Z,14.73
2019-04-27T22:50:07.671Z,18.42
2019-04-27T22:52:38.798Z,15.40
2019-04-27T22:55:11.821Z,14.45
2019-04-27T22:57:47.443Z,14.33
2019-04-27T23:00:32.700Z,13.45
2019-04-27T23:03:05.659Z,14.93
2019-04-27T23:05:37.041Z,14.65
2019-04-27T23:08:08.089Z,12.93
2019-04-27T23:10:39.311Z,14.53
2019-04-27T23:13:11.227Z,13.72
2019-04-27T23:15:44.249Z,12.10
2019-04-27T23:18:15.378Z,12.82
2019-04-27T23:20:46.718Z,13.38
2019-04-27T23:23:17.881Z,22.13
2019-04-27T23:25:49.137Z,12.75
2019-04-27T23:28:20.876Z,16.40
2019-04-27T23:30:56.792Z,16.25
2019-04-27T23:35:58.328Z,14.07
2019-04-27T23:38:30.960Z,20.35
2019-04-27T23:41:02.357Z,59.30
2019-04-27T23:43:33.496Z,17.85
2019-04-27T23:46:04.788Z,13.75
2019-04-27T23:48:36.049Z,15.78
2019-04-27T23:51:08.834Z,13.40
2019-04-27T23:53:41.765Z,11.45
2019-04-27T23:56:14.683Z,15.35
2019-04-27T23:58:45.781Z,12.35
